createdAt,value
2018-10-21T00:01:38.500Z,98007.54
2018-10-21T00:06:32.980Z,98005.78
2018-10-21T00:11:27.404Z,98003.34
2018-10-21T00:16:21.844Z,98000.81
2018-10-21T00:21:16.363Z,97991.19
2018-10-21T00:26:10.692Z,97998.27
2018-10-21T00:31:05.235Z,97984.09
2018-10-21T00:35:59.660Z,97982.66
2018-10-21T00:40:54.079Z,97971.14
2018-10-21T00:45:48.484Z,97965.76
2018-10-21T00:50:42.877Z,97963.34
2018-10-21T00:55:37.260Z,97969.06
2018-10-21T01:00:31.709Z,97968.48
2018-10-21T01:05:26.150Z,97955.83
2018-10-21T01:10:20.604Z,97962.61
2018-10-21T01:15:15.124Z,97951.06
2018-10-21T01:20:12.024Z,97949.84
2018-10-21T01:25:07.559Z,97948.95
2018-10-21T01:30:01.994Z,97956.72
2018-10-21T01:34:56.392Z,97957.13
2018-10-21T01:40:55.072Z,97960.33
2018-10-21T01:45:49.552Z,97960.19
2018-10-21T01:50:43.984Z,97964.47
2018-10-21T01:55:38.409Z,97970.41
2018-10-21T02:00:33.396Z,97972.42
2018-10-21T02:05:28.197Z,97973.35
2018-10-21T02:10:22.690Z,97968.89
2018-10-21T02:15:17.126Z,97969.09
2018-10-21T02:20:12.876Z,97957.25
2018-10-21T02:25:07.628Z,97958.64
2018-10-21T02:30:02.102Z,97955.78
2018-10-21T02:34:56.541Z,97951.80
2018-10-21T02:39:50.968Z,97948.36
2018-10-21T02:44:45.362Z,97939.52
2018-10-21T02:49:39.808Z,97933.86
2018-10-21T02:54:34.653Z,97931.53
2018-10-21T02:59:29.101Z,97925.05
2018-10-21T03:04:24.096Z,97925.35
2018-10-21T03:09:18.597Z,97931.95
2018-10-21T03:14:13.059Z,97926.52
2018-10-21T03:19:07.569Z,97928.20
2018-10-21T03:24:01.989Z,97927.44
2018-10-21T03:28:56.404Z,97938.16
2018-10-21T03:33:50.901Z,97932.19
2018-10-21T03:38:45.290Z,97937.99
2018-10-21T03:43:39.684Z,97940.22
2018-10-21T03:48:34.192Z,97949.98
2018-10-21T03:53:28.577Z,97942.97
2018-10-21T03:58:23.044Z,97945.30
2018-10-21T04:03:17.480Z,97941.53
2018-10-21T04:08:11.928Z,97934.32
2018-10-21T04:13:06.529Z,97921.36
2018-10-21T04:18:00.964Z,97922.44
2018-10-21T04:22:56.469Z,97922.25
2018-10-21T04:27:51.897Z,97933.83
2018-10-21T04:32:47.538Z,97934.89
2018-10-21T04:40:01.217Z,97935.86
2018-10-21T04:44:55.617Z,97933.63
2018-10-21T04:49:50.026Z,97932.55
2018-10-21T04:54:44.432Z,97922.91
2018-10-21T04:59:39.740Z,97932.04
2018-10-21T05:04:34.217Z,97928.14
2018-10-21T05:09:28.705Z,97928.46
2018-10-21T05:14:23.472Z,97921.26
2018-10-21T05:19:17.906Z,97925.23
2018-10-21T05:24:12.326Z,97929.91
2018-10-21T05:29:06.836Z,97920.30
2018-10-21T05:34:01.294Z,97931.47
2018-10-21T05:38:55.716Z,97935.58
2018-10-21T05:43:50.172Z,97927.66
2018-10-21T05:48:44.605Z,97930.81
2018-10-21T05:53:39.004Z,97934.59
2018-10-21T05:58:33.404Z,97935.68
2018-10-21T06:03:27.804Z,97932.25
2018-10-21T06:08:22.272Z,97932.38
2018-10-21T06:13:16.683Z,97936.05
2018-10-21T06:18:16.549Z,97922.63
2018-10-21T06:23:11.040Z,97927.44
2018-10-21T06:28:06.007Z,97937.55
2018-10-21T06:33:00.443Z,97938.50
2018-10-21T06:37:54.931Z,97945.30
2018-10-21T06:42:49.359Z,97945.23
2018-10-21T06:47:43.837Z,97946.41
2018-10-21T06:52:38.412Z,97944.48
2018-10-21T06:57:33.063Z,97952.67
2018-10-21T07:02:27.384Z,97952.16
2018-10-21T07:07:21.801Z,97959.36
2018-10-21T07:12:16.232Z,97974.45
2018-10-21T07:17:10.648Z,97973.19
2018-10-21T07:22:05.368Z,97974.74
2018-10-21T07:26:59.728Z,97962.56
2018-10-21T07:31:54.153Z,97966.58
2018-10-21T07:36:48.598Z,97962.89
2018-10-21T07:41:43.020Z,97957.61
2018-10-21T07:46:37.452Z,97956.66
2018-10-21T07:51:31.856Z,97959.59
2018-10-21T07:56:26.276Z,97958.22
2018-10-21T08:01:20.907Z,97968.00
2018-10-21T08:06:34.205Z,97959.67
2018-10-21T08:11:28.800Z,97962.46
2018-10-21T08:16:23.455Z,97962.79
2018-10-21T08:21:17.913Z,97969.86
2018-10-21T08:26:12.328Z,97963.70
2018-10-21T08:31:06.776Z,97968.87
2018-10-21T08:36:01.216Z,97967.36
2018-10-21T08:40:55.693Z,97958.84
2018-10-21T08:45:50.139Z,97952.38
2018-10-21T08:50:44.540Z,97946.28
2018-10-21T08:55:39.045Z,97931.05
2018-10-21T09:00:33.410Z,97935.39
2018-10-21T09:05:27.929Z,97922.77
2018-10-21T09:10:22.556Z,97917.78
2018-10-21T09:15:18.221Z,97929.48
2018-10-21T09:20:14.969Z,97920.69
2018-10-21T09:25:10.250Z,97916.89
2018-10-21T09:30:04.936Z,97916.20
2018-10-21T09:34:59.377Z,97916.20
2018-10-21T09:39:53.817Z,97923.23
2018-10-21T09:44:48.244Z,97927.20
2018-10-21T09:49:42.709Z,97918.41
2018-10-21T09:54:37.156Z,97904.86
2018-10-21T09:59:31.571Z,97894.22
2018-10-21T10:04:26.128Z,97892.24
2018-10-21T10:09:20.444Z,97881.39
2018-10-21T10:14:14.883Z,97872.52
2018-10-21T10:19:09.407Z,97863.33
2018-10-21T10:24:04.000Z,97861.98
2018-10-21T10:28:58.385Z,97850.31
2018-10-21T10:33:52.828Z,97854.09
2018-10-21T10:38:47.249Z,97851.34
2018-10-21T10:43:41.693Z,97852.08
2018-10-21T10:48:36.143Z,97846.78
2018-10-21T10:53:30.573Z,97845.22
2018-10-21T10:58:24.996Z,97832.15
2018-10-21T11:03:19.493Z,97824.81
2018-10-21T11:08:13.995Z,97820.41
2018-10-21T11:13:09.027Z,97812.47
2018-10-21T11:18:04.106Z,97816.20
2018-10-21T11:22:58.689Z,97805.34
2018-10-21T11:27:53.216Z,97803.16
2018-10-21T11:32:47.905Z,97790.87
2018-10-21T11:37:45.171Z,97788.41
2018-10-21T11:42:39.799Z,97783.21
2018-10-21T11:47:34.286Z,97788.72
2018-10-21T11:52:28.810Z,97783.25
2018-10-21T11:57:23.713Z,97774.91
2018-10-21T12:02:18.277Z,97773.23
2018-10-21T12:07:12.813Z,97777.78
2018-10-21T12:12:07.224Z,97785.59
2018-10-21T12:17:01.718Z,97773.08
2018-10-21T12:21:56.208Z,97761.77
2018-10-21T12:26:50.724Z,97768.55
2018-10-21T12:31:45.156Z,97757.05
2018-10-21T12:36:39.712Z,97754.19
2018-10-21T12:41:34.228Z,97742.92
2018-10-21T12:46:29.568Z,97742.61
2018-10-21T12:51:24.091Z,97735.46
2018-10-21T12:56:18.504Z,97726.78
2018-10-21T13:01:13.108Z,97724.87
2018-10-21T13:06:07.480Z,97729.96
2018-10-21T13:11:02.035Z,97747.21
2018-10-21T13:15:56.583Z,97727.72
2018-10-21T13:20:51.106Z,97722.33
2018-10-21T13:25:45.533Z,97726.80
2018-10-21T13:30:39.996Z,97717.80
2018-10-21T13:35:34.420Z,97711.89
2018-10-21T13:40:28.892Z,97714.48
2018-10-21T13:45:23.383Z,97706.74
2018-10-21T13:50:17.862Z,97712.43
2018-10-21T13:55:12.866Z,97711.88
2018-10-21T14:00:08.664Z,97714.09
2018-10-21T14:05:03.156Z,97707.91
2018-10-21T14:09:57.663Z,97701.56
2018-10-21T14:14:52.146Z,97698.08
2018-10-21T14:19:46.596Z,97696.59
2018-10-21T14:24:41.192Z,97693.77
2018-10-21T14:29:35.711Z,97691.34
2018-10-21T14:34:30.173Z,97697.64
2018-10-21T14:39:24.690Z,97693.63
2018-10-21T14:44:19.220Z,97690.53
2018-10-21T14:49:13.648Z,97692.05
2018-10-21T14:54:08.340Z,97699.80
2018-10-21T14:59:02.705Z,97698.84
2018-10-21T15:03:57.235Z,97703.27
2018-10-21T15:08:51.674Z,97695.50
2018-10-21T15:13:46.160Z,97702.88
2018-10-21T15:18:40.632Z,97703.03
2018-10-21T15:23:35.195Z,97697.93
2018-10-21T15:28:29.605Z,97697.02
2018-10-21T15:33:24.038Z,97706.39
2018-10-21T15:38:18.733Z,97696.67
2018-10-21T15:43:13.176Z,97709.86
2018-10-21T15:48:07.673Z,97695.77
2018-10-21T15:53:02.116Z,97691.69
2018-10-21T15:57:56.620Z,97696.48
2018-10-21T16:02:51.129Z,97700.97
2018-10-21T16:07:45.583Z,97697.53
2018-10-21T16:12:40.238Z,97690.20
2018-10-21T16:17:34.796Z,97703.67
2018-10-21T16:22:29.268Z,97700.53
2018-10-21T16:27:23.767Z,97696.44
2018-10-21T16:32:18.333Z,97704.51
2018-10-21T16:37:12.795Z,97707.52
2018-10-21T16:42:07.221Z,97706.16
2018-10-21T16:47:01.711Z,97711.84
2018-10-21T16:51:56.188Z,97719.24
2018-10-21T16:56:50.612Z,97727.96
2018-10-21T17:01:45.044Z,97725.39
2018-10-21T17:06:39.542Z,97730.98
2018-10-21T17:11:34.182Z,97727.80
2018-10-21T17:16:28.636Z,97733.66
2018-10-21T17:21:23.100Z,97729.70
2018-10-21T17:26:17.581Z,97733.75
2018-10-21T17:31:12.096Z,97734.40
2018-10-21T17:36:06.828Z,97739.02
2018-10-21T17:41:01.316Z,97731.05
2018-10-21T17:45:55.851Z,97730.22
2018-10-21T17:50:50.248Z,97734.51
2018-10-21T17:55:44.741Z,97728.55
2018-10-21T18:00:39.804Z,97729.17
2018-10-21T18:05:34.325Z,97728.77
2018-10-21T18:10:28.788Z,97732.84
2018-10-21T18:15:23.340Z,97725.88
2018-10-21T18:20:17.822Z,97721.23
2018-10-21T18:25:12.400Z,97726.92
2018-10-21T18:30:08.710Z,97731.86
2018-10-21T18:35:03.206Z,97726.42
2018-10-21T18:39:57.707Z,97726.02
2018-10-21T18:44:52.565Z,97736.44
2018-10-21T18:49:47.054Z,97723.63
2018-10-21T18:54:41.487Z,97729.88
2018-10-21T18:59:35.985Z,97729.98
2018-10-21T19:04:30.497Z,97727.25
2018-10-21T19:09:25.048Z,97723.24
2018-10-21T19:14:19.634Z,97723.96
2018-10-21T19:19:14.197Z,97727.39
2018-10-21T19:24:08.696Z,97728.50
2018-10-21T19:29:03.240Z,97735.75
2018-10-21T19:33:57.833Z,97733.93
2018-10-21T19:38:52.274Z,97744.23
2018-10-21T19:43:46.758Z,97734.72
2018-10-21T19:48:41.196Z,97736.42
2018-10-21T19:53:36.329Z,97735.31
2018-10-21T19:58:30.831Z,97732.80
2018-10-21T20:03:25.333Z,97737.55
2018-10-21T20:08:19.988Z,97734.30
2018-10-21T20:13:14.574Z,97738.77
2018-10-21T20:18:09.024Z,97738.77
2018-10-21T20:23:03.504Z,97738.28
2018-10-21T20:27:58.042Z,97732.36
2018-10-21T20:32:52.627Z,97733.30
2018-10-21T20:37:47.092Z,97741.28
2018-10-21T20:42:41.530Z,97736.87
2018-10-21T20:47:35.947Z,97748.20
2018-10-21T20:52:30.526Z,97748.86
2018-10-21T20:57:25.493Z,97739.92
2018-10-21T21:02:19.975Z,97739.48
2018-10-21T21:07:14.436Z,97737.21
2018-10-21T21:12:08.969Z,97742.03
2018-10-21T21:17:03.967Z,97748.88
2018-10-21T21:21:58.375Z,97742.12
2018-10-21T21:26:52.855Z,97743.48
2018-10-21T21:31:47.468Z,97737.82
2018-10-21T21:36:41.935Z,97738.39
2018-10-21T21:41:36.420Z,97731.03
2018-10-21T21:46:30.896Z,97737.10
2018-10-21T21:51:25.308Z,97727.03
2018-10-21T21:56:20.505Z,97733.03
2018-10-21T22:01:15.040Z,97725.89
2018-10-21T22:06:09.510Z,97720.72
2018-10-21T22:11:03.892Z,97721.55
2018-10-21T22:15:58.390Z,97721.83
2018-10-21T22:20:52.736Z,97711.06
2018-10-21T22:25:47.167Z,97708.02
2018-10-21T22:30:41.563Z,97710.11
2018-10-21T22:35:35.964Z,97707.36
2018-10-21T22:40:30.471Z,97712.16
2018-10-21T22:45:24.900Z,97710.29
2018-10-21T22:50:19.299Z,97703.89
2018-10-21T22:55:13.716Z,97709.20
2018-10-21T23:00:09.881Z,97713.02
2018-10-21T23:05:04.659Z,97717.41
2018-10-21T23:09:59.135Z,97716.73
2018-10-21T23:14:53.479Z,97722.55
2018-10-21T23:19:49.893Z,97724.02
2018-10-21T23:24:44.308Z,97721.79
2018-10-21T23:29:38.723Z,97729.55
2018-10-21T23:34:33.149Z,97720.89
2018-10-21T23:39:28.272Z,97737.56
2018-10-21T23:44:22.678Z,97732.59
2018-10-21T23:49:17.126Z,97732.08
2018-10-21T23:54:11.600Z,97734.92
2018-10-21T23:59:06.856Z,97740.95
